Flight Track Log - Related Links

Times and Time Zones

All times are in EDT time to prevent confusion due to time zone crossing. See the CES2727 flight status page for this flight to view local times or setup timezone preferences in your user account.

Time Position Orientation Groundspeed Altitude Reporting Facility
EDT Latitude Longitude Course Direction KTS MPH feet Rate Location/Type
Sat 08:37:49 PM 25.6640 114.7500 205° Southwest 472 543 32,100  Level FlightAware ADS-B
Sat 08:38:33 PM 25.5780 114.7050 205° Southwest 471 542 32,100  Level FlightAware ADS-B
Sat 08:39:12 PM 25.5000 114.6640 205° Southwest 471 542 32,100  Level FlightAware ADS-B
Sat 08:39:48 PM 25.4270 114.6260 205° Southwest 472 543 32,100  Level FlightAware ADS-B
Sat 08:40:45 PM 25.3150 114.5680 205° Southwest 472 543 32,100  Level FlightAware ADS-B
Sat 08:41:49 PM 25.1910 114.5030 205° Southwest 471 542 32,100 -336 Level FlightAware ADS-B
Sat 08:42:32 PM 25.1040 114.4580 205° Southwest 468 539 31,500 -951 Descending FlightAware ADS-B
Sat 08:43:11 PM 25.0290 114.4190 205° Southwest 472 543 30,800 -1,037 Descending FlightAware ADS-B
Sat 08:43:53 PM 24.9430 114.3750 205° Southwest 472 543 30,100 -940 Descending FlightAware ADS-B
Sat 08:44:34 PM 24.8640 114.3340 205° Southwest 467 537 29,500 -929 Descending FlightAware ADS-B
Sat 08:45:17 PM 24.7780 114.2900 205° Southwest 459 528 28,800 -1,448 Descending FlightAware ADS-B
Sat 08:46:01 PM 24.6940 114.2470 205° Southwest 446 513 27,400 -2,163 Descending FlightAware ADS-B
Sat 08:46:43 PM 24.6180 114.2070 206° Southwest 436 502 25,700 -2,268 Descending FlightAware ADS-B
Sat 08:47:23 PM 24.5470 114.1710 205° Southwest 420 483 24,300 -1,407 Descending FlightAware ADS-B
Sat 08:48:04 PM 24.4820 114.1380 205° Southwest 415 478 23,800 -385 Descending FlightAware ADS-B
Sat 08:48:41 PM 24.4270 114.1100 205° Southwest 415 478 23,800  Level FlightAware ADS-B
Sat 08:49:29 PM 24.3560 114.0730 205° Southwest 415 478 23,800  Level FlightAware ADS-B
Sat 08:50:05 PM 24.3030 114.0460 205° Southwest 415 478 23,800  Level FlightAware ADS-B
Sat 08:50:41 PM 24.2500 114.0190 205° Southwest 415 478 23,800  Level FlightAware ADS-B
Sat 08:51:29 PM 24.1790 113.9830 205° Southwest 415 478 23,800 -4,765 Level FlightAware ADS-B
Sat 08:52:23 PM 24.0690 113.9080 212° Southwest 365 420 15,700 -4,959 Descending FlightAware ADS-B
Sat 08:53:07 PM 24.0140 113.8540 222° Southwest 362 417 15,700  Level FlightAware ADS-B
Sat 08:53:47 PM 23.9640 113.8050 222° Southwest 364 419 15,700  Level FlightAware ADS-B
Sat 08:54:33 PM 23.9060 113.7480 222° Southwest 363 418 15,700  Level FlightAware ADS-B
Sat 08:55:13 PM 23.8570 113.7000 222° Southwest 365 420 15,700  Level FlightAware ADS-B
Sat 08:55:49 PM 23.8100 113.6540 222° Southwest 363 418 15,700  Level FlightAware ADS-B
Sat 08:56:31 PM 23.7590 113.6040 222° Southwest 366 421 15,700  Level FlightAware ADS-B
Sat 08:57:11 PM 23.7070 113.5540 221° Southwest 361 415 15,700  Level FlightAware ADS-B
Sat 08:57:47 PM 23.6630 113.5100 222° Southwest 364 419 15,700  Level FlightAware ADS-B
Sat 08:58:31 PM 23.6060 113.4550 221° Southwest 363 418 15,700  Level FlightAware ADS-B
Sat 08:59:11 PM 23.5570 113.4060 223° Southwest 361 415 15,700  Level FlightAware ADS-B
Sat 08:59:37 PM 23.5220 113.3810 213° Southwest 359 413 15,700 -1,000 Level FlightAware ADS-B
Sat 09:00:23 PM 23.4480 113.3520 200° South 369 425 14,500 -1,412 Descending FlightAware ADS-B
Sat 09:01:02 PM 23.3890 113.3300 199° South 348 400 13,700 -1,610 Descending FlightAware ADS-B
Sat 09:01:45 PM 23.3240 113.3050 199° South 336 387 12,300 -1,443 Descending FlightAware ADS-B
Sat 09:02:21 PM 23.2700 113.2890 195° South 343 395 11,800 -492 Descending FlightAware ADS-B
Sat 09:02:46 PM 23.2310 113.3010 164° South 344 396 11,800  Level FlightAware ADS-B
Sat 09:03:31 PM 23.1670 113.3340 155° Southeast 341 392 11,800 -71 Level FlightAware ADS-B
Sat 09:04:11 PM 23.1110 113.3640 154° Southeast 338 389 11,700 -400 Descending FlightAware ADS-B
Sat 09:04:46 PM 23.0600 113.3900 155° Southeast 339 390 11,300 -675 Descending FlightAware ADS-B
Sat 09:05:31 PM 22.9990 113.4220 154° Southeast 304 350 10,800 -592 Descending FlightAware ADS-B
Sat 09:05:57 PM 22.9650 113.4350 161° South 287 330 10,600 -1,059 Descending FlightAware ADS-B
Sat 09:06:39 PM 22.9110 113.4380 177° South 279 321 9,600 -1,448 Descending FlightAware ADS-B
Sat 09:06:55 PM 22.8890 113.4390 178° South 279 321 9,200 -900 Descending FlightAware ADS-B
Sat 09:07:19 PM 22.8600 113.4400 178° South 281 323 9,000 -300 Descending FlightAware ADS-B
Sat 09:07:35 PM 22.8380 113.4410 178° South 281 323 9,000  Level FlightAware ADS-B
Sat 09:08:04 PM 22.8010 113.4430 177° South 281 323 9,000  Level FlightAware ADS-B
Sat 09:08:16 PM 22.7870 113.4430 180° South 281 323 9,000  Level FlightAware ADS-B
Sat 09:08:44 PM 22.7490 113.4450 177° South 278 320 9,000 -143 Level FlightAware ADS-B
Sat 09:08:58 PM 22.7310 113.4460 177° South 277 319 8,900 -615 Descending FlightAware ADS-B
Sat 09:09:23 PM 22.6990 113.4470 178° South 278 320 8,600 -840 Descending FlightAware ADS-B
Sat 09:09:48 PM 22.6670 113.4480 178° South 276 318 8,200 -808 Descending FlightAware ADS-B
Sat 09:10:15 PM 22.6320 113.4500 177° South 274 315 7,900 -750 Descending FlightAware ADS-B
Sat 09:10:28 PM 22.6150 113.4500 180° South 272 313 7,700 -750 Descending FlightAware ADS-B
Sat 09:10:55 PM 22.5810 113.4520 177° South 269 310 7,400 -764 Descending FlightAware ADS-B
Sat 09:11:23 PM 22.5470 113.4530 178° South 266 306 7,000 -462 Descending FlightAware ADS-B
Sat 09:11:47 PM 22.5170 113.4540 178° South 266 306 7,000 -222 Level FlightAware ADS-B
Sat 09:12:17 PM 22.4790 113.4560 177° South 263 303 6,800 -571 Descending FlightAware ADS-B
Sat 09:12:29 PM 22.4650 113.4570 176° South 265 305 6,600 -1,200 Descending FlightAware ADS-B
Sat 09:12:57 PM 22.4300 113.4580 178° South 267 307 6,000 -1,227 Descending FlightAware ADS-B
Sat 09:13:13 PM 22.4110 113.4590 177° South 264 304 5,700 -1,227 Descending FlightAware ADS-B
Sat 09:13:41 PM 22.3760 113.4600 178° South 259 298 5,100 -1,371 Descending FlightAware ADS-B
Sat 09:13:48 PM 22.3690 113.4610 172° South 258 297 4,900 -1,500 Descending FlightAware ADS-B
Sat 09:14:17 PM 22.3360 113.4620 178° South 256 295 4,200 -1,469 Descending FlightAware ADS-B
Sat 09:14:37 PM 22.3100 113.4630 178° South 253 291 3,700 -1,000 Descending FlightAware ADS-B
Sat 09:15:05 PM 22.2780 113.4640 178° South 235 270 3,400 -643 Descending FlightAware ADS-B
Sat 09:15:33 PM 22.2490 113.4660 176° South 218 251 3,100 -600 Descending FlightAware ADS-B
Sat 09:15:45 PM 22.2370 113.4660 180° South 211 243 3,000 -600 Descending FlightAware ADS-B
Sat 09:16:13 PM 22.2110 113.4710 170° South 202 232 2,700 -321 Descending FlightAware ADS-B
Sat 09:16:41 PM 22.1880 113.4810 158° South 188 216 2,700  Level FlightAware ADS-B
Sat 09:17:09 PM 22.1660 113.4920 155° Southeast 182 209 2,700  Level FlightAware ADS-B
Sat 09:17:37 PM 22.1440 113.5000 161° South 174 200 2,700  Level FlightAware ADS-B
Sat 09:18:05 PM 22.1220 113.4980 185° South 173 199 2,700 -140 Level FlightAware ADS-B
Sat 09:18:20 PM 22.1130 113.4900 219° Southwest 162 186 2,600 -789 Descending FlightAware ADS-B
Sat 09:18:43 PM 22.1020 113.4780 225° Southwest 155 178 2,200 -480 Descending FlightAware ADS-B
Sat 09:19:10 PM 22.0900 113.4650 225° Southwest 155 178 2,200  Level FlightAware ADS-B
Sat 09:21:00 PM 22.0067 113.3764 225° Southwest  Level Estimated
Sat 09:22:00 PM 22.0067 113.3764 197° South  Level Estimated
Sat 09:23:00 PM 22.0067 113.3764 197° South  Level Estimated
Sat 09:24:00 PM 22.0067 113.3764 197° South  Level Estimated
Sat 09:25:00 PM 22.0067 113.3764 197° South  Level Estimated
Sat 09:26:00 PM 22.0067 113.3764 197° South  Level Estimated
Sat 09:27:00 PM 22.0067 113.3764 197° South  Level Estimated

Login

Don't have an account? Register now (free) for customized features, flight alerts, and more!